Time;durP1;ratioP1;P1;durP2;ratioP2;P2;SDS_P1;SDS_P2;PMS_P1;PMS_P2;Temp;Humidity;BMP_temperature;BMP_pressure;BME280_temperature;BME280_humidity;BME280_pressure;Samples;Min_cycle;Max_cycle;Signal;HPM_P1;HPM_P2
2023/01/16 00:00:04;;;;;;;4.80;0.50;;;3.20;99.90;;;;;;4945383;29;20060;-72
2023/01/16 00:02:32;;;;;;;4.18;0.80;;;3.40;99.90;;;;;;4944759;29;20056;-74
2023/01/16 00:04:58;;;;;;;4.50;0.50;;;3.50;99.90;;;;;;4944281;29;20040;-72
2023/01/16 00:07:24;;;;;;;4.15;0.90;;;3.60;99.90;;;;;;4944403;29;20027;-70
2023/01/16 00:09:50;;;;;;;4.22;0.80;;;3.60;99.90;;;;;;4944632;29;20107;-72
2023/01/16 00:12:15;;;;;;;3.13;0.40;;;3.60;99.90;;;;;;4945589;29;20036;-71
2023/01/16 00:14:41;;;;;;;3.08;0.70;;;3.70;99.90;;;;;;4945315;29;20063;-71
2023/01/16 00:17:07;;;;;;;5.00;0.90;;;3.80;99.90;;;;;;4945353;29;20083;-70
2023/01/16 00:19:32;;;;;;;6.90;0.75;;;3.80;99.90;;;;;;4944929;29;20119;-72
2023/01/16 00:21:58;;;;;;;4.10;0.43;;;3.90;99.90;;;;;;4947915;29;20035;-73
2023/01/16 00:24:24;;;;;;;2.05;0.40;;;4.00;99.90;;;;;;4945304;29;20075;-72
2023/01/16 00:26:51;;;;;;;2.38;0.40;;;4.00;99.90;;;;;;4944653;29;20468;-70
2023/01/16 00:29:16;;;;;;;4.03;0.93;;;4.00;99.90;;;;;;4944540;29;20040;-70
2023/01/16 06:02:59;;;;;;;3.70;0.82;;;2.40;99.90;;;;;;5176840;23;20130;-70
2023/01/16 06:05:25;;;;;;;4.93;1.02;;;2.40;99.90;;;;;;4965564;28;20035;-72
2023/01/16 06:07:55;;;;;;;5.47;1.02;;;2.40;99.90;;;;;;4966455;29;20034;-71
2023/01/16 06:10:21;;;;;;;4.35;0.70;;;2.40;99.90;;;;;;4958171;29;20039;-72
2023/01/16 06:12:47;;;;;;;5.18;0.63;;;2.50;99.90;;;;;;4947649;29;20062;-69
2023/01/16 06:15:13;;;;;;;4.07;0.70;;;2.50;99.90;;;;;;4950296;28;20031;-71
2023/01/16 06:17:39;;;;;;;2.50;0.60;;;2.50;99.90;;;;;;4981997;28;20033;-73
2023/01/16 06:20:05;;;;;;;2.67;0.80;;;2.60;99.90;;;;;;4966891;28;20066;-71
2023/01/16 06:22:30;;;;;;;2.65;0.70;;;2.60;99.90;;;;;;4966522;28;20236;-71
2023/01/16 06:24:56;;;;;;;3.20;0.93;;;2.70;99.90;;;;;;4965928;29;20061;-74
2023/01/16 06:27:22;;;;;;;3.30;0.80;;;2.70;99.90;;;;;;4965171;28;20042;-72
2023/01/16 06:29:48;;;;;;;3.35;1.00;;;2.80;99.90;;;;;;4966580;28;20094;-71
2023/01/16 06:32:16;;;;;;;6.40;1.35;;;2.80;99.90;;;;;;4964778;29;20078;-69
2023/01/16 06:34:42;;;;;;;10.47;2.87;;;2.80;99.90;;;;;;4966027;28;20027;-69
2023/01/16 06:37:08;;;;;;;8.32;2.03;;;2.70;99.90;;;;;;4966548;28;20320;-71
2023/01/16 06:39:34;;;;;;;6.53;1.45;;;2.70;99.90;;;;;;4966102;29;20051;-71
2023/01/16 06:42:03;;;;;;;4.70;1.27;;;2.70;99.90;;;;;;4964435;29;20043;-71
2023/01/16 06:44:29;;;;;;;6.10;1.52;;;2.70;99.90;;;;;;4965986;28;20309;-71
2023/01/16 06:46:55;;;;;;;4.28;1.08;;;2.80;99.90;;;;;;4965467;29;20042;-70
2023/01/16 06:49:21;;;;;;;3.97;1.10;;;2.80;99.90;;;;;;4966167;28;20090;-70
2023/01/16 06:51:46;;;;;;;6.50;2.33;;;2.90;99.90;;;;;;4964867;29;20042;-69
2023/01/16 06:54:12;;;;;;;5.55;1.35;;;2.90;99.90;;;;;;4965316;28;20090;-71
2023/01/16 06:56:38;;;;;;;4.43;1.33;;;2.80;99.90;;;;;;4965643;28;20055;-69
2023/01/16 06:59:04;;;;;;;4.25;0.65;;;2.90;99.90;;;;;;4965567;28;20033;-72
2023/01/16 07:01:29;;;;;;;5.32;1.65;;;2.90;99.90;;;;;;4965413;29;20031;-72
2023/01/16 07:03:55;;;;;;;3.28;0.90;;;2.90;99.90;;;;;;4965539;28;20035;-71
2023/01/16 07:06:21;;;;;;;6.13;0.90;;;2.80;99.90;;;;;;4964870;29;20043;-70
2023/01/16 07:08:50;;;;;;;3.97;1.27;;;2.80;99.90;;;;;;4965976;28;20078;-72
2023/01/16 07:11:17;;;;;;;3.42;0.80;;;2.90;99.90;;;;;;4946800;28;20036;-72
2023/01/16 07:13:43;;;;;;;3.28;1.05;;;2.90;99.90;;;;;;4946232;29;20110;-70
2023/01/16 07:24:34;;;;;;;2.97;0.63;;;3.10;99.90;;;;;;4946151;29;20095;-69
2023/01/16 07:27:04;;;;;;;5.30;0.70;;;3.10;99.90;;;;;;4945843;29;20191;-73
2023/01/16 07:29:32;;;;;;;4.25;0.98;;;3.10;99.90;;;;;;4958098;29;20023;-70
2023/01/16 07:32:00;;;;;;;5.75;1.10;;;3.10;99.90;;;;;;4947894;28;20116;-71
2023/01/16 07:34:26;;;;;;;3.80;1.23;;;3.20;99.90;;;;;;4965075;29;20027;-71
2023/01/16 07:36:52;;;;;;;5.18;0.90;;;3.20;99.90;;;;;;4957867;28;20035;-71
2023/01/16 07:39:17;;;;;;;2.10;0.82;;;3.20;99.90;;;;;;4941184;29;20023;-71
2023/01/16 07:41:44;;;;;;;2.60;0.98;;;3.30;99.90;;;;;;4937344;29;20028;-71
2023/01/16 07:44:10;;;;;;;3.70;0.90;;;3.30;99.90;;;;;;4933707;29;20233;-71
2023/01/16 07:46:36;;;;;;;2.35;0.75;;;3.30;99.90;;;;;;4958574;29;20023;-72
2023/01/16 07:49:02;;;;;;;3.28;0.90;;;3.40;99.90;;;;;;4949421;28;20087;-73
2023/01/16 07:51:27;;;;;;;2.35;0.70;;;3.40;99.90;;;;;;4945721;29;20043;-72
2023/01/16 07:53:53;;;;;;;3.53;1.02;;;3.50;99.90;;;;;;4945720;29;20224;-72
2023/01/16 07:56:19;;;;;;;4.05;0.80;;;3.50;99.90;;;;;;4939874;29;20082;-72
2023/01/16 07:58:45;;;;;;;2.17;0.63;;;3.50;99.90;;;;;;4926489;29;20043;-71
2023/01/16 08:01:11;;;;;;;2.60;0.80;;;3.60;99.90;;;;;;4940577;29;20083;-74
2023/01/16 08:03:37;;;;;;;4.03;0.70;;;3.60;99.90;;;;;;4957962;29;20038;-71
2023/01/16 08:06:04;;;;;;;5.70;0.80;;;3.60;99.90;;;;;;4964074;28;20043;-72
2023/01/16 08:08:31;;;;;;;2.58;0.60;;;3.70;99.90;;;;;;4964659;28;20058;-74
2023/01/16 08:10:59;;;;;;;2.03;0.75;;;3.70;99.90;;;;;;4948457;28;20035;-72
2023/01/16 08:13:26;;;;;;;1.90;0.60;;;3.80;99.90;;;;;;4945161;29;20019;-70
2023/01/16 08:15:52;;;;;;;1.98;0.63;;;3.90;99.90;;;;;;4945272;29;20035;-70
2023/01/16 08:18:19;;;;;;;2.17;1.10;;;3.90;99.90;;;;;;4945031;29;20039;-71
2023/01/16 08:20:46;;;;;;;2.55;0.80;;;4.00;99.90;;;;;;4945071;29;20102;-73
2023/01/16 08:23:12;;;;;;;1.63;0.60;;;4.10;99.90;;;;;;4944922;29;20046;-71
2023/01/16 08:25:38;;;;;;;2.65;0.70;;;4.10;99.90;;;;;;4945185;29;20055;-70
2023/01/16 08:28:05;;;;;;;4.65;0.80;;;4.10;99.90;;;;;;4944603;29;20028;-72
2023/01/16 08:30:31;;;;;;;1.70;0.55;;;4.20;99.90;;;;;;4944969;29;20225;-71
2023/01/16 08:32:58;;;;;;;1.58;0.40;;;4.20;99.90;;;;;;4943619;29;20035;-72
2023/01/16 08:35:24;;;;;;;2.53;0.55;;;4.20;99.90;;;;;;4945164;29;20031;-74
2023/01/16 08:37:50;;;;;;;1.20;0.38;;;4.30;99.90;;;;;;4960884;29;20046;-69
2023/01/16 08:40:17;;;;;;;3.00;0.70;;;4.30;99.90;;;;;;4950753;28;20043;-71
2023/01/16 08:53:43;;;;;;;2.33;0.65;;;4.40;99.90;;;;;;4944643;29;20190;-71
2023/01/16 08:56:09;;;;;;;3.70;0.88;;;4.50;99.90;;;;;;4944260;29;20040;-73
2023/01/16 08:58:35;;;;;;;5.55;0.90;;;4.50;99.90;;;;;;4944637;29;20027;-71
2023/01/16 09:01:01;;;;;;;1.45;0.52;;;4.50;99.90;;;;;;4943814;29;20046;-72
2023/01/16 09:03:27;;;;;;;2.72;0.60;;;4.60;99.90;;;;;;4944601;29;20044;-73
2023/01/16 09:05:52;;;;;;;1.90;0.80;;;4.60;99.90;;;;;;4944714;29;20320;-71
2023/01/16 09:08:18;;;;;;;2.20;0.50;;;4.60;99.90;;;;;;4943861;29;20475;-70
2023/01/16 09:13:48;;;;;;;2.95;0.40;;;4.60;99.90;;;;;;4944633;29;20039;-70
2023/01/16 09:13:48;;;;;;;2.67;0.40;;;4.70;99.90;;;;;;4944500;29;20083;-70
2023/01/16 09:16:22;;;;;;;2.95;0.70;;;4.70;99.90;;;;;;4944143;29;20030;-70
2023/01/16 09:18:48;;;;;;;3.20;0.60;;;4.70;99.90;;;;;;4944296;29;20027;-70
2023/01/16 09:21:14;;;;;;;1.83;0.50;;;4.80;99.70;;;;;;4943889;29;20107;-69
2023/01/16 09:23:40;;;;;;;1.85;0.38;;;4.80;99.70;;;;;;4941746;29;20313;-70
2023/01/16 09:26:06;;;;;;;1.80;0.60;;;4.80;99.40;;;;;;4942571;29;20113;-71
2023/01/16 09:28:32;;;;;;;2.00;0.50;;;4.90;98.90;;;;;;4944276;29;20042;-68
2023/01/16 09:30:58;;;;;;;2.17;0.60;;;5.00;98.00;;;;;;4944456;29;20099;-69
2023/01/16 09:33:24;;;;;;;1.80;0.47;;;5.10;97.40;;;;;;4944188;29;20142;-72
2023/01/16 09:35:49;;;;;;;1.58;0.50;;;5.10;97.70;;;;;;4945091;29;20035;-71
2023/01/16 09:38:15;;;;;;;2.08;0.40;;;5.20;98.00;;;;;;4949037;29;20032;-70
2023/01/16 09:40:52;;;;;;;2.42;0.40;;;5.20;97.20;;;;;;4943423;29;20133;-72
2023/01/16 09:43:37;;;;;;;2.47;0.43;;;5.30;97.40;;;;;;4923633;29;20036;-70
2023/01/16 09:46:08;;;;;;;3.63;0.68;;;5.30;98.00;;;;;;4943501;29;20113;-71
2023/01/16 09:48:45;;;;;;;3.60;0.70;;;5.40;97.80;;;;;;4944150;29;20205;-73
2023/01/16 09:51:19;;;;;;;3.38;0.70;;;5.50;97.70;;;;;;4944453;29;20039;-72
2023/01/16 09:59:54;;;;;;;3.38;0.98;;;5.60;97.20;;;;;;4944151;29;20043;-71
2023/01/16 10:02:22;;;;;;;3.92;0.57;;;5.60;96.70;;;;;;4946344;29;20066;-71
2023/01/16 10:04:51;;;;;;;2.72;0.77;;;5.60;97.00;;;;;;4948007;29;20040;-69
2023/01/16 10:07:21;;;;;;;2.08;0.55;;;5.70;96.50;;;;;;4946038;29;20059;-70
2023/01/16 10:09:53;;;;;;;5.45;0.95;;;5.60;96.20;;;;;;4954371;29;20034;-69
2023/01/16 10:12:19;;;;;;;3.67;0.90;;;5.60;96.30;;;;;;4955726;28;20067;-71
2023/01/16 10:14:58;;;;;;;2.60;0.60;;;5.60;96.50;;;;;;4946406;29;20055;-72
2023/01/16 10:17:23;;;;;;;;;;;5.70;96.20;;;;;;4948143;29;20434;-71
2023/01/16 10:20:13;;;;;;;1.42;0.30;;;5.70;95.60;;;;;;4932587;29;19918;-70
2023/01/16 10:23:01;;;;;;;1.77;0.40;;;5.70;95.20;;;;;;4950170;29;20305;-68
2023/01/16 10:25:36;;;;;;;4.03;0.50;;;5.70;94.80;;;;;;4951513;29;20055;-69
2023/01/16 10:28:47;;;;;;;0.90;0.30;;;5.80;94.30;;;;;;4948892;29;20047;-72
2023/01/16 10:31:32;;;;;;;1.65;0.32;;;5.80;93.80;;;;;;4945266;29;20310;-69
2023/01/16 10:34:09;;;;;;;0.77;0.28;;;5.90;93.40;;;;;;4945121;29;20099;-70
2023/01/16 10:36:43;;;;;;;2.42;0.30;;;5.90;93.10;;;;;;4947744;29;20039;-70
2023/01/16 10:39:12;;;;;;;0.95;0.20;;;6.00;92.80;;;;;;4946824;29;20143;-72
2023/01/16 10:50:24;;;;;;;0.80;0.20;;;6.30;92.50;;;;;;4946803;29;20290;-70
2023/01/16 10:52:50;;;;;;;0.52;0.17;;;6.50;92.00;;;;;;4946933;29;20031;-73
2023/01/16 10:55:17;;;;;;;0.40;0.20;;;6.50;92.00;;;;;;4946542;29;20028;-72
2023/01/16 10:57:54;;;;;;;1.30;0.10;;;6.50;92.70;;;;;;4946912;29;20040;-75
2023/01/16 11:00:28;;;;;;;1.80;0.15;;;6.60;93.00;;;;;;4946034;29;20043;-72
2023/01/16 11:02:58;;;;;;;2.85;0.85;;;6.60;93.20;;;;;;4946641;29;20067;-70
2023/01/16 11:05:29;;;;;;;2.28;1.13;;;6.60;93.30;;;;;;4946078;29;20218;-70
2023/01/16 11:08:01;;;;;;;1.45;0.68;;;6.60;93.40;;;;;;4946697;29;20036;-75
2023/01/16 11:10:26;;;;;;;1.20;0.30;;;6.70;92.80;;;;;;4957540;29;20035;-74
2023/01/16 11:18:34;;;;;;;0.93;0.25;;;6.70;94.60;;;;;;4945805;29;20090;-71
2023/01/16 11:21:16;;;;;;;1.33;0.30;;;6.70;95.50;;;;;;4946496;29;20051;-69
2023/01/16 11:23:46;;;;;;;1.15;0.32;;;6.70;96.20;;;;;;4946056;29;20031;-69
2023/01/16 11:26:13;;;;;;;1.27;0.20;;;6.60;97.30;;;;;;4945777;29;20049;-70
2023/01/16 11:28:47;;;;;;;1.10;0.20;;;6.60;97.40;;;;;;4946512;29;20087;-70
2023/01/16 11:31:15;;;;;;;1.23;0.25;;;6.60;97.90;;;;;;4944594;29;20035;-70
2023/01/16 11:33:54;;;;;;;1.02;0.20;;;6.60;98.40;;;;;;4947302;29;20027;-70
2023/01/16 11:36:22;;;;;;;0.88;0.17;;;6.60;98.50;;;;;;4945311;29;20034;-69
2023/01/16 11:38:49;;;;;;;0.38;0.10;;;6.60;98.40;;;;;;4946362;29;20028;-71
2023/01/16 11:41:23;;;;;;;0.30;0.10;;;6.70;98.30;;;;;;4945791;29;20040;-71
2023/01/16 11:46:58;;;;;;;1.83;0.20;;;6.70;98.30;;;;;;4945610;29;20377;-72
2023/01/16 11:49:37;;;;;;;0.40;0.10;;;6.70;97.80;;;;;;4947189;29;20031;-70
2023/01/16 11:52:04;;;;;;;0.43;0.10;;;6.80;97.60;;;;;;4945836;29;20082;-71
2023/01/16 11:54:34;;;;;;;1.35;0.25;;;6.80;97.70;;;;;;4947429;29;20051;-71
2023/01/16 11:57:15;;;;;;;2.22;0.25;;;6.90;97.30;;;;;;4939476;29;20028;-71
2023/01/16 12:00:19;;;;;;;1.02;0.28;;;6.90;97.00;;;;;;4948242;29;20325;-70
2023/01/16 12:03:14;;;;;;;1.27;0.30;;;7.00;97.40;;;;;;4926376;29;20225;-72
2023/01/16 12:06:09;;;;;;;1.58;0.20;;;7.10;97.20;;;;;;4926187;29;20047;-73
2023/01/16 12:09:11;;;;;;;0.73;0.20;;;7.10;97.30;;;;;;4926446;29;20031;-72
2023/01/16 12:11:55;;;;;;;0.90;0.22;;;7.10;97.50;;;;;;4928353;29;20322;-78
2023/01/16 12:14:37;;;;;;;2.03;0.20;;;7.20;97.50;;;;;;4932968;29;20027;-76
2023/01/16 12:17:54;;;;;;;0.63;0.20;;;7.20;97.60;;;;;;4937291;29;20107;-77
2023/01/16 12:20:42;;;;;;;0.98;0.28;;;7.30;97.60;;;;;;4906008;29;20092;-76
2023/01/16 12:23:47;;;;;;;1.02;0.20;;;7.30;97.70;;;;;;4902821;29;20076;-78
2023/01/16 12:26:21;;;;;;;0.95;0.22;;;7.40;97.60;;;;;;4946908;29;20047;-78
2023/01/16 12:28:47;;;;;;;0.35;0.10;;;7.50;97.40;;;;;;4950977;29;20031;-76
2023/01/16 12:31:41;;;;;;;0.88;0.20;;;7.50;97.60;;;;;;4960085;29;20062;-76
2023/01/16 12:34:25;;;;;;;0.55;0.10;;;7.40;97.60;;;;;;4926491;29;20036;-79
2023/01/16 12:37:37;;;;;;;0.82;0.20;;;7.40;97.70;;;;;;4925396;29;20036;-77
2023/01/16 12:40:03;;;;;;;0.65;0.15;;;7.50;97.50;;;;;;4929515;29;20174;-75
2023/01/16 12:45:55;;;;;;;0.70;0.30;;;7.70;97.60;;;;;;4944594;28;20043;-77
2023/01/16 12:48:39;;;;;;;1.90;0.32;;;7.90;97.30;;;;;;4952044;28;20024;-75
2023/01/16 12:51:22;;;;;;;0.85;0.30;;;8.00;97.20;;;;;;4944831;29;20066;-77
2023/01/16 12:54:16;;;;;;;0.77;0.25;;;8.10;96.80;;;;;;4945168;29;20039;-76
2023/01/16 12:57:13;;;;;;;1.80;0.20;;;8.20;96.80;;;;;;4943601;29;20040;-76
2023/01/16 12:59:48;;;;;;;0.50;0.17;;;8.30;96.60;;;;;;4926025;29;20039;-76
2023/01/16 13:02:17;;;;;;;0.43;0.10;;;8.30;96.50;;;;;;4925048;29;20052;-79
2023/01/16 13:04:50;;;;;;;0.65;0.13;;;8.10;96.70;;;;;;4936706;29;20047;-78
2023/01/16 13:07:17;;;;;;;0.77;0.20;;;8.10;96.80;;;;;;4945011;29;20042;-77
2023/01/16 13:16:14;;;;;;;0.75;0.30;;;8.40;96.50;;;;;;4953673;29;20035;-72
2023/01/16 13:19:17;;;;;;;0.63;0.10;;;8.50;96.30;;;;;;4944679;29;20063;-74
2023/01/16 13:22:06;;;;;;;0.63;0.20;;;8.60;96.70;;;;;;4888781;29;20045;-76
2023/01/16 13:27:58;;;;;;;0.73;0.13;;;8.70;96.10;;;;;;4868586;29;20047;-77
2023/01/16 13:30:28;;;;;;;0.63;0.20;;;8.80;95.60;;;;;;4936885;29;20067;-77
2023/01/16 13:32:56;;;;;;;0.50;0.20;;;8.80;95.90;;;;;;4927650;29;20035;-77
2023/01/16 13:35:57;;;;;;;1.00;0.10;;;8.80;95.80;;;;;;4944325;29;20027;-78
2023/01/16 13:38:45;;;;;;;0.30;0.10;;;9.30;95.40;;;;;;4931397;29;20241;-78
2023/01/16 13:41:24;;;;;;;0.30;0.10;;;9.30;94.70;;;;;;4947968;29;20086;-77
2023/01/16 13:46:47;;;;;;;0.35;0.10;;;10.10;94.00;;;;;;4948193;29;20035;-78
2023/01/16 13:49:34;;;;;;;1.17;0.10;;;10.40;93.30;;;;;;4946798;29;20024;-77
2023/01/16 13:52:17;;;;;;;0.40;0.10;;;10.30;92.70;;;;;;4948224;29;20352;-77
2023/01/16 13:55:00;;;;;;;0.70;0.20;;;10.30;92.70;;;;;;4948221;29;20098;-77
2023/01/16 13:57:47;;;;;;;0.40;0.20;;;10.10;93.00;;;;;;4947909;29;20035;-78
2023/01/16 14:00:25;;;;;;;0.57;0.10;;;10.00;93.00;;;;;;4942938;29;20035;-77
2023/01/16 14:03:42;;;;;;;1.30;0.10;;;9.80;93.00;;;;;;4924267;29;20342;-76
2023/01/16 14:06:11;;;;;;;0.67;0.20;;;10.10;92.70;;;;;;4913892;29;20061;-76
2023/01/16 14:09:11;;;;;;;1.58;0.35;;;10.20;92.20;;;;;;4967947;28;20027;-79
2023/01/16 14:11:53;;;;;;;0.65;0.20;;;10.30;92.10;;;;;;4960033;28;20408;-78
2023/01/16 14:18:14;;;;;;;0.38;0.10;;;10.30;92.20;;;;;;4947024;29;20075;-79
2023/01/16 14:21:03;;;;;;;0.30;0.10;;;10.60;91.10;;;;;;4928385;29;20080;-77
2023/01/16 14:26:35;;;;;;;1.02;0.30;;;10.10;91.60;;;;;;4945760;29;20051;-77
2023/01/16 14:29:23;;;;;;;1.17;0.20;;;9.60;92.20;;;;;;4947605;29;20051;-76
2023/01/16 14:31:56;;;;;;;1.35;0.10;;;9.80;92.20;;;;;;4947576;29;20031;-77
2023/01/16 14:34:44;;;;;;;2.03;0.20;;;9.50;92.70;;;;;;4947291;29;20095;-78
2023/01/16 14:37:29;;;;;;;0.38;0.03;;;9.20;93.00;;;;;;4947711;29;20062;-79
2023/01/16 14:40:05;;;;;;;0.40;0.10;;;8.60;93.90;;;;;;4930408;29;20032;-77
2023/01/16 14:57:30;;;;;;;1.42;0.55;;;7.80;95.60;;;;;;4946632;29;20055;-76
2023/01/16 15:00:14;;;;;;;0.88;0.35;;;7.80;95.70;;;;;;4930037;29;20027;-78
2023/01/16 15:02:51;;;;;;;1.80;0.70;;;7.60;95.90;;;;;;4949155;29;20054;-78
2023/01/16 15:05:51;;;;;;;0.95;0.30;;;7.50;96.10;;;;;;4951214;29;20031;-76
2023/01/16 15:08:47;;;;;;;0.70;0.20;;;7.40;96.10;;;;;;4951794;28;20044;-78
2023/01/16 15:11:33;;;;;;;0.93;0.30;;;7.40;96.00;;;;;;4962801;29;20075;-75
2023/01/16 15:14:27;;;;;;;1.95;0.30;;;7.40;96.20;;;;;;4949273;29;20023;-74
2023/01/16 15:23:22;;;;;;;0.45;0.10;;;7.20;96.60;;;;;;4965663;29;20039;-77
2023/01/16 15:26:03;;;;;;;0.68;0.20;;;7.10;96.70;;;;;;4965192;29;20135;-77
2023/01/16 15:29:00;;;;;;;1.58;0.20;;;7.20;96.70;;;;;;4964836;29;20035;-77
2023/01/16 15:31:37;;;;;;;0.63;0.20;;;7.20;96.90;;;;;;4872012;29;20249;-77
2023/01/16 15:34:12;;;;;;;2.08;0.25;;;7.20;96.80;;;;;;4887493;29;20056;-76
2023/01/16 15:36:48;;;;;;;0.88;0.50;;;7.20;96.90;;;;;;4887769;29;20049;-77
2023/01/16 15:39:48;;;;;;;1.20;0.40;;;7.10;97.10;;;;;;4887337;29;20040;-78
2023/01/16 15:48:27;;;;;;;0.57;0.10;;;7.10;98.20;;;;;;4887585;29;20130;-77
2023/01/16 15:50:59;;;;;;;1.05;0.30;;;7.10;98.90;;;;;;4887671;29;20645;-78
2023/01/16 15:53:40;;;;;;;1.08;0.30;;;7.00;99.50;;;;;;4887364;29;20048;-76
2023/01/16 15:56:15;;;;;;;0.57;0.20;;;6.90;99.90;;;;;;4887224;29;20052;-78
2023/01/16 15:58:47;;;;;;;1.15;0.40;;;6.80;99.90;;;;;;4888413;29;20045;-76
2023/01/16 16:01:14;;;;;;;0.70;0.20;;;6.70;99.90;;;;;;4886987;29;20048;-77
2023/01/16 16:03:44;;;;;;;0.32;0.10;;;6.60;99.90;;;;;;4886940;29;20049;-76
2023/01/16 16:06:12;;;;;;;0.50;0.17;;;6.40;99.90;;;;;;4890362;29;20041;-76
2023/01/16 16:08:39;;;;;;;;;;;6.40;99.90;;;;;;4926453;29;20059;-77
2023/01/16 16:13:56;;;;;;;0.43;0.10;;;6.30;99.90;;;;;;4945673;29;20027;-76
2023/01/16 16:19:30;;;;;;;0.50;0.10;;;6.30;99.90;;;;;;4945250;29;20039;-76
2023/01/16 16:24:44;;;;;;;1.02;0.22;;;6.10;99.90;;;;;;4945530;29;20309;-78
2023/01/16 16:27:16;;;;;;;1.85;0.50;;;6.10;99.90;;;;;;4945452;29;20035;-76
2023/01/16 16:29:55;;;;;;;1.95;0.30;;;6.00;99.90;;;;;;4945191;29;20317;-76
2023/01/16 16:32:21;;;;;;;1.40;0.50;;;6.00;99.90;;;;;;4943691;29;20039;-79
2023/01/16 16:34:56;;;;;;;0.80;0.30;;;6.00;99.90;;;;;;4944071;29;20270;-77
2023/01/16 16:37:23;;;;;;;0.85;0.35;;;5.90;99.90;;;;;;4943613;29;20092;-77
2023/01/16 16:40:01;;;;;;;1.60;0.30;;;5.90;99.90;;;;;;4944914;29;20083;-78
2023/01/16 16:42:32;;;;;;;2.20;0.20;;;5.80;99.90;;;;;;4944401;29;20047;-78
2023/01/16 16:45:06;;;;;;;1.25;0.30;;;5.70;99.90;;;;;;4944871;29;20091;-76
2023/01/16 16:47:49;;;;;;;1.20;0.47;;;5.70;99.90;;;;;;4943488;29;20186;-76
2023/01/16 16:50:28;;;;;;;1.13;0.47;;;5.60;99.90;;;;;;4945005;29;20151;-80
2023/01/16 16:53:25;;;;;;;0.88;0.30;;;5.40;99.90;;;;;;4944928;29;20031;-76
2023/01/16 16:56:10;;;;;;;0.80;0.30;;;5.30;99.90;;;;;;4945164;29;20039;-78
2023/01/16 16:58:42;;;;;;;1.58;0.40;;;5.20;99.90;;;;;;4943414;29;20031;-80
2023/01/16 17:01:13;;;;;;;2.20;0.50;;;5.10;99.90;;;;;;4940433;29;20047;-76
2023/01/16 17:03:40;;;;;;;0.80;0.30;;;5.00;99.90;;;;;;4923944;29;20297;-76
2023/01/16 17:06:10;;;;;;;0.70;0.30;;;4.90;99.90;;;;;;4930444;29;20309;-76
2023/01/16 17:08:35;;;;;;;1.13;0.45;;;4.90;99.90;;;;;;4963426;28;20246;-77
2023/01/16 17:11:01;;;;;;;1.67;0.40;;;4.90;99.90;;;;;;4950599;29;20042;-78
2023/01/16 17:13:27;;;;;;;0.80;0.30;;;4.90;99.90;;;;;;4948482;29;20295;-77
2023/01/16 17:15:56;;;;;;;0.63;0.22;;;4.90;99.90;;;;;;4948400;29;20041;-76
2023/01/16 17:18:24;;;;;;;2.97;0.40;;;4.90;99.90;;;;;;4931291;29;20251;-75
2023/01/16 17:20:52;;;;;;;2.33;0.50;;;4.80;99.90;;;;;;4947470;29;20059;-78
2023/01/16 17:23:18;;;;;;;1.45;0.47;;;4.80;99.90;;;;;;4947297;29;20043;-74
2023/01/16 17:25:44;;;;;;;1.00;0.35;;;4.90;99.90;;;;;;4948179;29;20039;-75
2023/01/16 17:28:11;;;;;;;2.00;0.40;;;4.90;99.90;;;;;;4947271;29;20369;-76
2023/01/16 17:30:38;;;;;;;1.60;0.40;;;4.90;99.90;;;;;;4931082;29;20032;-77
2023/01/16 17:33:13;;;;;;;2.13;0.45;;;4.90;99.90;;;;;;4948108;29;20047;-77
2023/01/16 17:35:41;;;;;;;1.63;0.60;;;4.90;99.90;;;;;;4948063;29;20102;-75
2023/01/16 17:38:19;;;;;;;2.65;0.85;;;4.90;99.90;;;;;;4948396;29;20026;-76
2023/01/16 17:40:45;;;;;;;1.65;0.70;;;4.90;99.90;;;;;;4951773;29;20031;-78
2023/01/16 17:46:14;;;;;;;1.38;0.55;;;4.70;99.90;;;;;;4947847;29;20091;-75
2023/01/16 17:48:40;;;;;;;1.70;0.80;;;4.70;99.90;;;;;;4947406;29;20301;-76
2023/01/16 17:51:06;;;;;;;1.58;0.60;;;4.70;99.90;;;;;;4947908;29;20035;-76
2023/01/16 17:53:34;;;;;;;1.83;0.70;;;4.60;99.90;;;;;;4947395;29;20102;-78
2023/01/16 17:56:02;;;;;;;1.50;0.60;;;4.60;99.90;;;;;;4946980;29;20071;-76
2023/01/16 18:01:14;;;;;;;2.10;0.60;;;4.60;99.90;;;;;;4947438;29;20155;-78
2023/01/16 18:03:46;;;;;;;2.28;0.60;;;4.60;99.90;;;;;;4947031;29;20040;-76
2023/01/16 18:06:12;;;;;;;2.70;0.55;;;4.70;99.90;;;;;;4950167;29;20019;-76
2023/01/16 18:08:38;;;;;;;1.77;0.63;;;4.70;99.90;;;;;;4966750;28;20031;-75
2023/01/16 18:19:20;;;;;;;1.40;0.30;;;4.80;99.90;;;;;;4946717;29;20031;-76
2023/01/16 18:22:01;;;;;;;0.73;0.25;;;4.80;99.90;;;;;;4947617;29;20027;-75
2023/01/16 18:24:30;;;;;;;2.08;0.50;;;4.80;99.90;;;;;;4945593;29;20107;-74
2023/01/16 18:26:57;;;;;;;1.15;0.30;;;4.80;99.90;;;;;;4946002;29;20082;-74
2023/01/16 18:29:23;;;;;;;1.52;0.40;;;4.80;99.90;;;;;;4947433;29;20046;-76
2023/01/16 18:34:34;;;;;;;1.58;0.50;;;4.80;99.90;;;;;;4946607;29;20039;-74
2023/01/16 18:36:59;;;;;;;2.25;0.60;;;4.80;99.90;;;;;;4947221;29;20247;-74
2023/01/16 19:02:12;;;;;;;1.67;0.50;;;4.80;99.90;;;;;;4945656;29;20338;-76
2023/01/16 19:04:38;;;;;;;1.90;0.60;;;4.80;99.90;;;;;;4946281;29;20035;-76
2023/01/16 19:07:26;;;;;;;1.17;0.30;;;4.80;99.90;;;;;;4955714;29;20380;-74
2023/01/16 19:10:00;;;;;;;1.27;0.30;;;4.80;99.90;;;;;;4958828;28;20120;-75
2023/01/16 19:12:34;;;;;;;1.15;0.40;;;4.80;99.90;;;;;;4946030;29;20141;-75
2023/01/16 19:15:01;;;;;;;2.20;0.80;;;4.70;99.90;;;;;;4946261;29;20288;-75
2023/01/16 19:17:27;;;;;;;1.55;0.60;;;4.70;99.90;;;;;;4944821;29;20027;-76
2023/01/16 19:19:54;;;;;;;1.17;0.30;;;4.60;99.90;;;;;;4946251;29;20026;-75
2023/01/16 19:22:22;;;;;;;1.65;0.55;;;4.60;99.90;;;;;;4945105;29;20055;-75
2023/01/16 19:24:48;;;;;;;3.00;0.50;;;4.50;99.90;;;;;;4928714;29;20035;-76
2023/01/16 19:27:14;;;;;;;1.10;0.52;;;4.40;99.90;;;;;;4946338;29;20035;-76
2023/01/16 19:29:40;;;;;;;1.70;0.40;;;4.40;99.90;;;;;;4945666;29;20373;-74
2023/01/16 19:32:06;;;;;;;0.93;0.30;;;4.40;99.90;;;;;;4946324;29;20039;-75
2023/01/16 19:34:36;;;;;;;2.03;0.30;;;4.30;99.90;;;;;;4944857;29;20023;-76
2023/01/16 19:37:06;;;;;;;1.50;0.50;;;4.30;99.90;;;;;;4945768;29;20319;-75
2023/01/16 19:39:33;;;;;;;1.08;0.43;;;4.30;99.90;;;;;;4945095;29;20036;-76
2023/01/16 19:47:29;;;;;;;1.45;0.45;;;4.10;99.90;;;;;;4951786;29;20066;-75
2023/01/16 19:49:55;;;;;;;2.65;0.57;;;4.20;99.90;;;;;;4950546;29;20053;-77
2023/01/16 19:52:20;;;;;;;2.25;0.50;;;4.10;99.90;;;;;;4945754;29;20043;-76
2023/01/16 19:54:46;;;;;;;1.98;0.60;;;4.10;99.90;;;;;;4945184;29;20032;-75
2023/01/16 19:57:12;;;;;;;1.65;0.70;;;4.10;99.90;;;;;;4945980;29;20035;-75
2023/01/16 19:59:37;;;;;;;0.95;0.35;;;4.10;99.90;;;;;;4942576;29;20062;-76
2023/01/16 20:02:06;;;;;;;3.90;0.60;;;4.00;99.90;;;;;;4942360;29;20039;-75
2023/01/16 20:04:38;;;;;;;2.60;0.50;;;4.00;99.90;;;;;;4947299;29;20062;-76
2023/01/16 20:07:11;;;;;;;1.65;0.43;;;3.90;99.90;;;;;;4960865;29;20139;-74
2023/01/16 20:09:40;;;;;;;2.33;0.65;;;3.90;99.90;;;;;;4959295;28;20031;-75
2023/01/16 20:12:26;;;;;;;1.35;0.60;;;3.90;99.90;;;;;;4963301;29;20332;-74
2023/01/16 20:14:54;;;;;;;2.85;0.60;;;3.90;99.90;;;;;;4952911;29;20222;-76
2023/01/16 20:17:22;;;;;;;1.52;0.50;;;4.00;99.90;;;;;;4945441;29;20058;-77
2023/01/16 20:19:49;;;;;;;3.25;0.52;;;4.00;99.90;;;;;;4957945;29;20039;-76
2023/01/16 20:22:16;;;;;;;2.15;0.68;;;4.00;99.90;;;;;;4964557;28;20026;-76
2023/01/16 20:24:41;;;;;;;2.78;0.55;;;4.10;99.90;;;;;;4962597;29;20217;-75
2023/01/16 20:27:09;;;;;;;1.75;0.50;;;4.20;99.90;;;;;;4964629;28;20057;-76
2023/01/16 20:29:35;;;;;;;2.57;0.70;;;4.30;99.90;;;;;;4963844;28;20225;-75
2023/01/16 20:32:01;;;;;;;3.92;0.60;;;4.30;99.90;;;;;;4963211;29;20459;-76
2023/01/16 20:34:27;;;;;;;2.15;0.40;;;4.30;99.90;;;;;;4964112;29;20057;-76
2023/01/16 20:36:53;;;;;;;1.27;0.63;;;4.40;99.90;;;;;;4950295;29;20123;-75
2023/01/16 20:39:19;;;;;;;2.80;0.68;;;4.40;99.90;;;;;;4944887;29;20365;-77
2023/01/16 20:47:17;;;;;;;2.17;0.60;;;4.30;99.90;;;;;;4945076;29;20055;-76
2023/01/16 20:49:43;;;;;;;3.17;0.47;;;4.30;99.90;;;;;;4944804;29;20027;-76
2023/01/16 20:52:13;;;;;;;1.98;0.75;;;4.30;99.90;;;;;;4943603;29;20096;-76
2023/01/16 20:54:39;;;;;;;1.20;0.50;;;4.30;99.90;;;;;;4944323;29;20043;-76
2023/01/16 20:57:05;;;;;;;3.38;0.50;;;4.20;99.90;;;;;;4943696;29;20038;-79
2023/01/16 20:59:31;;;;;;;2.00;0.70;;;4.20;99.90;;;;;;4943857;29;20032;-77
2023/01/16 21:02:00;;;;;;;2.70;0.90;;;4.30;99.90;;;;;;4942714;29;20047;-75
2023/01/16 21:04:28;;;;;;;2.85;0.85;;;4.20;99.90;;;;;;4945202;29;20071;-76
2023/01/16 21:06:54;;;;;;;3.60;0.80;;;4.20;99.90;;;;;;4943994;29;20027;-75
2023/01/16 21:09:20;;;;;;;2.60;0.73;;;4.20;99.90;;;;;;4944651;29;20038;-76
2023/01/16 21:14:31;;;;;;;2.58;0.47;;;4.10;99.90;;;;;;4943804;29;20067;-75
2023/01/16 21:22:31;;;;;;;3.20;0.52;;;4.50;99.90;;;;;;4944593;29;20039;-75
2023/01/16 21:24:58;;;;;;;2.17;0.40;;;4.50;99.90;;;;;;4944272;29;20058;-75
2023/01/16 21:27:27;;;;;;;2.30;0.47;;;4.50;99.90;;;;;;4945121;29;20024;-75
2023/01/16 21:29:58;;;;;;;1.90;0.47;;;4.40;99.90;;;;;;4944327;29;20047;-77
2023/01/16 21:32:25;;;;;;;2.47;0.50;;;4.40;99.90;;;;;;4944758;29;20063;-76
2023/01/16 21:34:52;;;;;;;2.28;0.65;;;4.40;99.90;;;;;;4944144;29;20031;-74